Climatologie pour Saint-Brevin les Pins
Jour • Résumé pour mars 12, 2017 Système :  Métrique    Anglais   Mixte
« - 1 jour
+ 1 jour »
Jour Semaine Mois Année Personnalisé
  Maximum : Minimum : Moyenne :
Température sous abri : 11.8 °C 7.9 °C 10.1 °C
Point de rosée : 11.3 °C 7.0 °C 9.5 °C
Humidité : 98 % 93 % 96 %
Vitesse du vent : 16.1 km/h 0.0 km/h 5.5 km/h
Rafale : 27.4 km/h - -
Direction :- - WNW
Pression : 1022.2 hPa 1013.1 hPa -
Précipitations : 7.1 mm    
Historical Graphs
 
 
Tableau de données pour mars 12, 2017
Heure Tempé Pt rosée Pression Vent Vitesse Rafale Humidité Taux pluie (/hr) Soleil
00:00 9.8 °C 9.1 °C 1014.8 hPa Calm     95 % 0.0 mm 0 W/m2
00:15 9.3 °C 8.6 °C 1014.8 hPa Calm   1.6 km/h 95 % 0.0 mm 0 W/m2
00:20 9.4 °C 8.8 °C 1014.8 hPa NNE 3.2 km/h 4.8 km/h 96 % 0.0 mm 0 W/m2
00:25 9.3 °C 8.5 °C 1014.8 hPa Calm   4.8 km/h 95 % 0.0 mm 0 W/m2
00:30 9.4 °C 8.8 °C 1014.8 hPa Calm   4.8 km/h 96 % 0.0 mm 0 W/m2
00:35 9.6 °C 8.9 °C 1014.8 hPa Calm   4.8 km/h 96 % 0.0 mm 0 W/m2
00:40 9.6 °C 8.9 °C 1014.8 hPa Calm   1.6 km/h 96 % 0.0 mm 0 W/m2
00:45 9.4 °C 8.8 °C 1014.8 hPa Calm     96 % 0.0 mm 0 W/m2
00:50 9.2 °C 8.6 °C 1014.8 hPa Calm   1.6 km/h 96 % 0.0 mm 0 W/m2
00:55 9.1 °C 8.5 °C 1014.8 hPa Calm   1.6 km/h 96 % 0.0 mm 0 W/m2
01:00 9.2 °C 8.6 °C 1015.1 hPa WNW 4.8 km/h 6.4 km/h 96 % 0.0 mm 0 W/m2
01:10 9.8 °C 9.3 °C 1015.5 hPa West 8.0 km/h 11.3 km/h 97 % 0.0 mm 0 W/m2
01:15 10.1 °C 9.6 °C 1015.1 hPa West 6.4 km/h 11.3 km/h 97 % 0.0 mm 0 W/m2
01:20 10.2 °C 9.6 °C 1015.1 hPa Calm   8.0 km/h 96 % 0.0 mm 0 W/m2
01:25 10.3 °C 9.7 °C 1015.1 hPa SSW 3.2 km/h 8.0 km/h 96 % 0.0 mm 0 W/m2
01:30 10.2 °C 9.6 °C 1015.1 hPa SW 3.2 km/h 6.4 km/h 96 % 0.0 mm 0 W/m2
01:35 10.2 °C 9.6 °C 1015.1 hPa SSW 3.2 km/h 8.0 km/h 96 % 0.0 mm 0 W/m2
01:40 10.3 °C 9.5 °C 1015.1 hPa SSW 3.2 km/h 14.5 km/h 95 % 0.0 mm 0 W/m2
01:45 10.2 °C 9.5 °C 1015.1 hPa WSW 6.4 km/h 14.5 km/h 95 % 0.0 mm 0 W/m2
01:50 10.2 °C 9.5 °C 1015.1 hPa WSW 6.4 km/h 11.3 km/h 95 % 0.0 mm 0 W/m2
01:55 10.2 °C 9.4 °C 1014.8 hPa West 3.2 km/h 12.9 km/h 95 % 0.0 mm 0 W/m2
02:00 10.2 °C 9.4 °C 1015.1 hPa West 8.0 km/h 12.9 km/h 95 % 0.0 mm 0 W/m2
02:05 10.3 °C 9.7 °C 1015.1 hPa West 4.8 km/h 12.9 km/h 96 % 0.0 mm 0 W/m2
02:10 10.3 °C 9.5 °C 1015.1 hPa WSW 11.3 km/h 17.7 km/h 95 % 0.0 mm 0 W/m2
02:15 10.3 °C 9.6 °C 1014.8 hPa Calm   19.3 km/h 95 % 0.0 mm 0 W/m2
02:20 10.3 °C 9.6 °C 1014.8 hPa Calm   19.3 km/h 95 % 0.0 mm 0 W/m2
02:25 10.4 °C 9.8 °C 1014.8 hPa West 3.2 km/h 9.7 km/h 96 % 0.0 mm 0 W/m2
02:30 10.4 °C 9.8 °C 1014.8 hPa WSW 6.4 km/h 9.7 km/h 96 % 0.0 mm 0 W/m2
02:35 10.6 °C 9.9 °C 1014.8 hPa WSW 8.0 km/h 14.5 km/h 96 % 0.0 mm 0 W/m2
02:40 10.6 °C 9.8 °C 1014.8 hPa West 6.4 km/h 14.5 km/h 95 % 0.0 mm 0 W/m2
02:45 10.7 °C 9.9 °C 1014.8 hPa WNW 6.4 km/h 14.5 km/h 95 % 0.0 mm 0 W/m2
02:50 10.6 °C 9.8 °C 1014.8 hPa West 8.0 km/h 12.9 km/h 95 % 0.0 mm 0 W/m2
02:55 10.6 °C 9.8 °C 1014.4 hPa West 4.8 km/h 12.9 km/h 95 % 0.0 mm 0 W/m2
03:00 10.6 °C 9.8 °C 1014.4 hPa NNW 3.2 km/h 12.9 km/h 95 % 0.0 mm 0 W/m2
03:05 10.6 °C 9.8 °C 1014.4 hPa West 8.0 km/h 11.3 km/h 95 % 0.0 mm 0 W/m2
03:10 10.5 °C 9.7 °C 1014.4 hPa WNW 6.4 km/h 16.1 km/h 95 % 0.0 mm 0 W/m2
03:15 10.4 °C 9.7 °C 1014.4 hPa WNW 6.4 km/h 16.1 km/h 95 % 0.0 mm 0 W/m2
03:20 10.4 °C 9.8 °C 1014.1 hPa Calm   11.3 km/h 96 % 0.0 mm 0 W/m2
03:25 10.4 °C 9.6 °C 1014.1 hPa WNW 3.2 km/h 6.4 km/h 95 % 0.0 mm 0 W/m2
03:30 10.4 °C 9.8 °C 1014.1 hPa WNW 3.2 km/h 6.4 km/h 96 % 0.0 mm 0 W/m2
03:35 10.3 °C 9.7 °C 1013.8 hPa Calm   6.4 km/h 96 % 0.0 mm 0 W/m2
03:40 10.3 °C 9.7 °C 1013.8 hPa Calm   4.8 km/h 96 % 0.0 mm 0 W/m2
03:45 10.3 °C 9.7 °C 1013.4 hPa Calm   4.8 km/h 96 % 0.0 mm 0 W/m2
03:50 10.2 °C 9.6 °C 1013.8 hPa Calm   3.2 km/h 96 % 0.0 mm 0 W/m2
03:55 10.1 °C 9.4 °C 1013.4 hPa NW 1.6 km/h 6.4 km/h 96 % 0.0 mm 0 W/m2
04:00 10.2 °C 9.6 °C 1013.4 hPa WNW 6.4 km/h 9.7 km/h 96 % 0.0 mm 0 W/m2
04:05 10.3 °C 9.9 °C 1013.4 hPa WNW 3.2 km/h 11.3 km/h 97 % 0.0 mm 0 W/m2
04:10 10.4 °C 9.8 °C 1013.4 hPa WNW 4.8 km/h 11.3 km/h 96 % 0.0 mm 0 W/m2
04:20 10.6 °C 9.9 °C 1013.4 hPa WNW 6.4 km/h 9.7 km/h 96 % 0.0 mm 0 W/m2
04:25 10.6 °C 10.0 °C 1013.4 hPa NW 9.7 km/h 11.3 km/h 96 % 0.0 mm 0 W/m2
04:30 10.7 °C 10.1 °C 1013.4 hPa WNW 14.5 km/h 16.1 km/h 96 % 0.0 mm 0 W/m2
04:35 10.7 °C 10.1 °C 1013.4 hPa NW 6.4 km/h 16.1 km/h 96 % 0.0 mm 0 W/m2
04:40 10.8 °C 10.2 °C 1013.4 hPa WNW 4.8 km/h 17.7 km/h 96 % 0.0 mm 0 W/m2
04:45 10.7 °C 10.1 °C 1013.4 hPa NNW 1.6 km/h 17.7 km/h 96 % 0.0 mm 0 W/m2
04:50 10.6 °C 10.0 °C 1013.4 hPa Calm   11.3 km/h 96 % 0.0 mm 0 W/m2
04:55 10.4 °C 9.8 °C 1013.1 hPa Calm   9.7 km/h 96 % 0.0 mm 0 W/m2
05:00 10.4 °C 9.8 °C 1013.4 hPa Calm   9.7 km/h 96 % 0.0 mm 0 W/m2
05:10 10.4 °C 9.8 °C 1013.1 hPa Calm   4.8 km/h 96 % 0.0 mm 0 W/m2
05:15 10.4 °C 9.8 °C 1013.1 hPa NW 6.4 km/h 6.4 km/h 96 % 0.0 mm 0 W/m2
05:20 10.4 °C 9.8 °C 1013.1 hPa NW 1.6 km/h 6.4 km/h 96 % 0.0 mm 0 W/m2
05:25 10.4 °C 9.8 °C 1013.1 hPa NW 3.2 km/h 6.4 km/h 96 % 0.0 mm 0 W/m2
05:30 10.3 °C 9.7 °C 1013.1 hPa Calm   3.2 km/h 96 % 0.0 mm 0 W/m2
05:35 10.3 °C 9.9 °C 1013.1 hPa Calm   3.2 km/h 97 % 0.0 mm 0 W/m2
05:40 10.4 °C 9.9 °C 1013.1 hPa Calm   1.6 km/h 97 % 0.0 mm 0 W/m2
05:45 10.3 °C 9.8 °C 1013.1 hPa Calm   1.6 km/h 97 % 0.0 mm 0 W/m2
05:50 10.2 °C 9.6 °C 1013.1 hPa Calm   3.2 km/h 96 % 0.0 mm 0 W/m2
05:55 10.2 °C 9.7 °C 1013.1 hPa Calm   3.2 km/h 97 % 0.0 mm 0 W/m2
06:00 10.0 °C 9.5 °C 1013.1 hPa Calm   1.6 km/h 97 % 0.0 mm 0 W/m2
06:05 10.2 °C 9.7 °C 1013.1 hPa NW 3.2 km/h 3.2 km/h 97 % 0.0 mm 0 W/m2
06:10 10.3 °C 9.9 °C 1013.1 hPa SSW 3.2 km/h 6.4 km/h 97 % 0.0 mm 0 W/m2
06:15 10.4 °C 10.0 °C 1013.1 hPa Calm   6.4 km/h 97 % 0.0 mm 0 W/m2
06:20 10.4 °C 9.9 °C 1013.4 hPa SSW 3.2 km/h 9.7 km/h 97 % 0.0 mm 0 W/m2
06:25 10.3 °C 9.9 °C 1013.4 hPa SSW 3.2 km/h 9.7 km/h 97 % 0.0 mm 0 W/m2
06:30 10.2 °C 9.8 °C 1013.4 hPa SSW 1.6 km/h 4.8 km/h 97 % 0.0 mm 0 W/m2
06:35 10.2 °C 9.8 °C 1013.1 hPa Calm   6.4 km/h 97 % 0.0 mm 0 W/m2
06:40 10.2 °C 9.8 °C 1013.1 hPa Calm   6.4 km/h 97 % 0.0 mm 0 W/m2
06:45 10.1 °C 9.7 °C 1013.1 hPa Calm   1.6 km/h 97 % 0.0 mm 0 W/m2
06:50 10.2 °C 9.7 °C 1013.4 hPa WNW 3.2 km/h 9.7 km/h 97 % 0.0 mm 0 W/m2
06:55 10.2 °C 9.8 °C 1013.4 hPa SW 1.6 km/h 9.7 km/h 97 % 0.0 mm 0 W/m2
07:00 10.3 °C 9.8 °C 1013.4 hPa WNW 3.2 km/h 9.7 km/h 97 % 0.0 mm 0 W/m2
07:05 10.3 °C 9.8 °C 1013.4 hPa WNW 8.0 km/h 11.3 km/h 97 % 0.0 mm 0 W/m2
07:10 10.3 °C 9.8 °C 1013.8 hPa WSW 4.8 km/h 11.3 km/h 97 % 0.0 mm 0 W/m2
07:15 10.3 °C 9.8 °C 1013.8 hPa WNW 9.7 km/h 14.5 km/h 97 % 0.0 mm 0 W/m2
07:20 10.3 °C 9.8 °C 1013.8 hPa WNW 11.3 km/h 14.5 km/h 97 % 0.0 mm 0 W/m2
07:25 10.3 °C 10.0 °C 1013.8 hPa WNW 8.0 km/h 14.5 km/h 98 % 0.0 mm 0 W/m2
07:30 10.3 °C 10.0 °C 1013.8 hPa West 4.8 km/h 14.5 km/h 98 % 0.0 mm 0 W/m2
07:35 10.3 °C 10.0 °C 1013.8 hPa WNW 12.9 km/h 16.1 km/h 98 % 0.0 mm 0 W/m2
07:40 10.3 °C 10.0 °C 1013.8 hPa WNW 6.4 km/h 16.1 km/h 98 % 0.0 mm 0 W/m2
07:45 10.3 °C 10.0 °C 1013.8 hPa NW 11.3 km/h 12.9 km/h 98 % 0.0 mm 0 W/m2
07:50 10.4 °C 10.1 °C 1013.8 hPa WNW 4.8 km/h 12.9 km/h 98 % 0.0 mm 0 W/m2
07:55 10.4 °C 10.1 °C 1013.8 hPa WNW 1.6 km/h 14.5 km/h 98 % 0.0 mm 0 W/m2
08:00 10.4 °C 10.1 °C 1013.8 hPa NW 4.8 km/h 14.5 km/h 98 % 0.0 mm 0 W/m2
08:05 10.4 °C 10.1 °C 1013.8 hPa WNW 9.7 km/h 12.9 km/h 98 % 0.0 mm 5 W/m2
08:10 10.4 °C 10.1 °C 1013.8 hPa WNW 3.2 km/h 11.3 km/h 98 % 0.0 mm 5 W/m2
08:15 10.4 °C 10.1 °C 1013.8 hPa NW 4.8 km/h 11.3 km/h 98 % 0.0 mm 5 W/m2
08:20 10.4 °C 10.1 °C 1013.8 hPa NW 9.7 km/h 12.9 km/h 98 % 0.0 mm 7 W/m2
08:25 10.4 °C 10.1 °C 1013.8 hPa NW 8.0 km/h 12.9 km/h 98 % 0.0 mm 9 W/m2
08:30 10.5 °C 10.2 °C 1013.8 hPa NW 1.6 km/h 12.9 km/h 98 % 0.0 mm 9 W/m2
08:35 10.5 °C 10.2 °C 1013.8 hPa NW 6.4 km/h 8.0 km/h 98 % 0.0 mm 11 W/m2
08:40 10.6 °C 10.3 °C 1013.8 hPa WNW 8.0 km/h 11.3 km/h 98 % 0.0 mm 9 W/m2
08:45 10.6 °C 10.1 °C 1014.1 hPa NW 8.0 km/h 12.9 km/h 97 % 0.0 mm 11 W/m2
08:50 10.6 °C 10.3 °C 1014.1 hPa NNW 6.4 km/h 12.9 km/h 98 % 0.0 mm 11 W/m2
08:55 10.6 °C 10.3 °C 1013.8 hPa NNW 1.6 km/h 12.9 km/h 98 % 0.0 mm 12 W/m2
09:00 10.6 °C 10.3 °C 1014.1 hPa NW 3.2 km/h 12.9 km/h 98 % 0.0 mm 14 W/m2
09:05 10.7 °C 10.4 °C 1014.1 hPa NNW 3.2 km/h 9.7 km/h 98 % 0.0 mm 14 W/m2
09:10 10.7 °C 10.3 °C 1014.1 hPa NW 1.6 km/h 11.3 km/h 97 % 0.0 mm 14 W/m2
09:15 10.7 °C 10.3 °C 1014.1 hPa North 3.2 km/h 11.3 km/h 97 % 0.0 mm 19 W/m2
09:20 10.8 °C 10.3 °C 1014.1 hPa Calm   9.7 km/h 97 % 0.0 mm 25 W/m2
09:25 10.8 °C 10.3 °C 1014.1 hPa North 8.0 km/h 9.7 km/h 97 % 0.0 mm 30 W/m2
09:30 10.8 °C 10.4 °C 1014.1 hPa Calm   12.9 km/h 97 % 0.0 mm 33 W/m2
09:35 10.8 °C 10.4 °C 1014.1 hPa NNW 3.2 km/h 12.9 km/h 97 % 0.0 mm 33 W/m2
09:40 10.8 °C 10.4 °C 1014.1 hPa NNW 1.6 km/h 12.9 km/h 97 % 0.0 mm 30 W/m2
09:45 10.9 °C 10.4 °C 1014.1 hPa Calm   12.9 km/h 97 % 0.0 mm 39 W/m2
09:50 10.9 °C 10.5 °C 1014.1 hPa NW 4.8 km/h 14.5 km/h 97 % 0.0 mm 28 W/m2
09:55 10.9 °C 10.5 °C 1014.4 hPa WNW 4.8 km/h 14.5 km/h 97 % 0.0 mm 33 W/m2
10:00 10.9 °C 10.5 °C 1014.4 hPa West 8.0 km/h 12.9 km/h 97 % 0.0 mm 33 W/m2
10:05 11.0 °C 10.5 °C 1014.4 hPa WNW 9.7 km/h 14.5 km/h 97 % 0.0 mm 39 W/m2
10:10 11.1 °C 10.6 °C 1014.4 hPa NNW 12.9 km/h 14.5 km/h 97 % 0.0 mm 42 W/m2
10:15 11.2 °C 10.7 °C 1014.4 hPa NW 4.8 km/h 12.9 km/h 97 % 0.0 mm 42 W/m2
10:20 11.2 °C 10.7 °C 1014.4 hPa North 12.9 km/h 12.9 km/h 97 % 0.0 mm 47 W/m2
10:25 11.2 °C 10.8 °C 1014.4 hPa NW 1.6 km/h 12.9 km/h 97 % 0.0 mm 35 W/m2
10:30 11.2 °C 10.8 °C 1014.8 hPa North 3.2 km/h 14.5 km/h 97 % 0.0 mm 33 W/m2
10:35 11.2 °C 10.8 °C 1014.8 hPa NNW 12.9 km/h 16.1 km/h 97 % 0.0 mm 30 W/m2
10:40 11.2 °C 10.8 °C 1014.8 hPa North 3.2 km/h 16.1 km/h 97 % 0.0 mm 33 W/m2
10:45 11.2 °C 10.8 °C 1014.8 hPa NNW 8.0 km/h 16.1 km/h 97 % 0.0 mm 42 W/m2
10:50 11.3 °C 10.8 °C 1014.8 hPa NNW 3.2 km/h 14.5 km/h 97 % 0.0 mm 42 W/m2
10:55 11.3 °C 10.9 °C 1014.8 hPa NNW 4.8 km/h 12.9 km/h 97 % 0.0 mm 53 W/m2
11:00 11.4 °C 10.9 °C 1014.8 hPa North 4.8 km/h 12.9 km/h 97 % 0.0 mm 63 W/m2
11:05 11.4 °C 10.9 °C 1014.8 hPa NNW 6.4 km/h 14.5 km/h 97 % 0.0 mm 70 W/m2
11:10 11.5 °C 11.0 °C 1014.8 hPa NNW 6.4 km/h 14.5 km/h 97 % 0.0 mm 113 W/m2
11:15 11.6 °C 11.2 °C 1014.8 hPa North 1.6 km/h 16.1 km/h 97 % 0.0 mm 69 W/m2
11:20 11.6 °C 11.2 °C 1014.8 hPa North 1.6 km/h 16.1 km/h 97 % 0.0 mm 102 W/m2
11:25 11.7 °C 11.3 °C 1015.1 hPa NW 3.2 km/h 14.5 km/h 97 % 0.0 mm 88 W/m2
11:30 11.8 °C 11.3 °C 1015.1 hPa WNW 4.8 km/h 11.3 km/h 97 % 0.0 mm 51 W/m2
11:35 11.7 °C 11.3 °C 1015.1 hPa NNW 3.2 km/h 12.9 km/h 97 % 0.0 mm 60 W/m2
11:40 11.6 °C 11.0 °C 1015.1 hPa NNW 6.4 km/h 12.9 km/h 96 % 0.0 mm 51 W/m2
11:45 11.6 °C 11.1 °C 1015.1 hPa NW 1.6 km/h 11.3 km/h 97 % 0.0 mm 54 W/m2
11:50 11.5 °C 11.0 °C 1015.1 hPa NNW 3.2 km/h 14.5 km/h 97 % 0.0 mm 35 W/m2
11:55 11.4 °C 10.9 °C 1015.1 hPa North 1.6 km/h 14.5 km/h 97 % 0.3 mm 18 W/m2
12:00 11.3 °C 10.8 °C 1015.1 hPa WNW 4.8 km/h 14.5 km/h 97 % 0.3 mm 23 W/m2
12:05 11.2 °C 10.7 °C 1015.1 hPa North 4.8 km/h 11.3 km/h 97 % 0.3 mm 19 W/m2
12:10 11.2 °C 10.7 °C 1015.5 hPa North 3.2 km/h 11.3 km/h 97 % 0.3 mm 26 W/m2
12:15 11.2 °C 10.7 °C 1015.5 hPa NNW 4.8 km/h 12.9 km/h 97 % 0.3 mm 26 W/m2
12:20 11.1 °C 10.7 °C 1015.5 hPa NW 8.0 km/h 12.9 km/h 97 % 0.3 mm 30 W/m2
12:25 11.1 °C 10.6 °C 1015.5 hPa NNW 8.0 km/h 14.5 km/h 97 % 0.3 mm 35 W/m2
12:30 11.1 °C 10.6 °C 1015.5 hPa NW 3.2 km/h 19.3 km/h 97 % 0.3 mm 40 W/m2
12:40 11.1 °C 10.6 °C 1015.5 hPa NNW 4.8 km/h 14.5 km/h 97 % 0.5 mm 53 W/m2
12:45 11.1 °C 10.7 °C 1015.5 hPa NNW 6.4 km/h 11.3 km/h 97 % 0.5 mm 54 W/m2
12:50 11.1 °C 10.7 °C 1015.8 hPa WNW 4.8 km/h 11.3 km/h 97 % 0.5 mm 62 W/m2
12:55 11.1 °C 10.6 °C 1015.8 hPa NW 4.8 km/h 11.3 km/h 97 % 0.3 mm 30 W/m2
13:00 10.9 °C 10.5 °C 1015.8 hPa NW 9.7 km/h 11.3 km/h 97 % 0.5 mm 54 W/m2
13:05 10.9 °C 10.5 °C 1015.8 hPa NW 4.8 km/h 12.9 km/h 97 % 0.5 mm 74 W/m2
13:10 10.9 °C 10.4 °C 1015.8 hPa NW 9.7 km/h 14.5 km/h 97 % 0.5 mm 70 W/m2
13:15 10.7 °C 10.3 °C 1015.8 hPa NW 8.0 km/h 16.1 km/h 97 % 0.5 mm 63 W/m2
13:20 10.7 °C 10.2 °C 1015.8 hPa North 11.3 km/h 16.1 km/h 97 % 0.8 mm 65 W/m2
13:25 10.6 °C 10.1 °C 1015.8 hPa NW 9.7 km/h 17.7 km/h 97 % 1.0 mm 54 W/m2
13:35 10.3 °C 9.8 °C 1015.8 hPa NNW 6.4 km/h 16.1 km/h 97 % 1.3 mm 62 W/m2
13:40 10.2 °C 9.8 °C 1015.8 hPa NW 4.8 km/h 14.5 km/h 97 % 1.3 mm 72 W/m2
13:45 10.2 °C 9.8 °C 1015.8 hPa NNW 3.2 km/h 16.1 km/h 97 % 1.3 mm 65 W/m2
13:50 10.1 °C 9.7 °C 1015.8 hPa NW 3.2 km/h 16.1 km/h 97 % 1.5 mm 67 W/m2
13:55 10.1 °C 9.7 °C 1015.8 hPa NW 1.6 km/h 16.1 km/h 97 % 1.5 mm 58 W/m2
14:00 10.1 °C 9.6 °C 1015.8 hPa NW 3.2 km/h 16.1 km/h 97 % 1.5 mm 65 W/m2
14:05 10.1 °C 9.7 °C 1015.8 hPa NNW 6.4 km/h 14.5 km/h 97 % 1.5 mm 62 W/m2
14:10 10.1 °C 9.7 °C 1016.1 hPa WNW 1.6 km/h 14.5 km/h 97 % 1.5 mm 63 W/m2
14:15 10.2 °C 9.9 °C 1016.1 hPa North 1.6 km/h 14.5 km/h 98 % 1.5 mm 65 W/m2
14:20 10.2 °C 9.9 °C 1016.1 hPa NNW 3.2 km/h 14.5 km/h 98 % 1.8 mm 63 W/m2
14:25 10.3 °C 10.0 °C 1016.1 hPa NNW 3.2 km/h 14.5 km/h 98 % 1.5 mm 60 W/m2
14:30 10.2 °C 9.9 °C 1016.1 hPa NW 8.0 km/h 14.5 km/h 98 % 1.8 mm 51 W/m2
14:35 10.2 °C 9.7 °C 1016.1 hPa NNW 6.4 km/h 14.5 km/h 97 % 1.8 mm 53 W/m2
14:40 10.2 °C 9.9 °C 1016.1 hPa NNW 8.0 km/h 14.5 km/h 98 % 1.8 mm 53 W/m2
14:45 10.2 °C 9.7 °C 1016.1 hPa NW 4.8 km/h 14.5 km/h 97 % 2.0 mm 49 W/m2
14:50 10.2 °C 9.7 °C 1016.1 hPa NW 8.0 km/h 14.5 km/h 97 % 1.8 mm 58 W/m2
14:55 10.2 °C 9.9 °C 1016.5 hPa NNW 6.4 km/h 14.5 km/h 98 % 2.0 mm 63 W/m2
15:00 10.2 °C 9.9 °C 1016.5 hPa NW 3.2 km/h 11.3 km/h 98 % 2.0 mm 65 W/m2
15:05 10.2 °C 9.9 °C 1016.5 hPa NW 8.0 km/h 12.9 km/h 98 % 2.0 mm 67 W/m2
15:10 10.3 °C 10.0 °C 1016.5 hPa NW 8.0 km/h 12.9 km/h 98 % 2.0 mm 69 W/m2
15:15 10.3 °C 10.0 °C 1016.5 hPa Calm   12.9 km/h 98 % 1.8 mm 70 W/m2
15:20 10.3 °C 10.0 °C 1016.5 hPa NNW 4.8 km/h 14.5 km/h 98 % 1.8 mm 70 W/m2
15:25 10.3 °C 10.0 °C 1016.5 hPa North 6.4 km/h 14.5 km/h 98 % 2.0 mm 72 W/m2
15:30 10.4 °C 10.1 °C 1016.5 hPa WNW 3.2 km/h 12.9 km/h 98 % 1.8 mm 76 W/m2
15:35 10.4 °C 10.1 °C 1016.5 hPa Calm   12.9 km/h 98 % 1.5 mm 76 W/m2
15:40 10.4 °C 10.1 °C 1016.8 hPa NW 4.8 km/h 12.9 km/h 98 % 1.5 mm 72 W/m2
15:45 10.4 °C 10.1 °C 1016.8 hPa NW 6.4 km/h 9.7 km/h 98 % 1.5 mm 63 W/m2
15:55 10.5 °C 10.2 °C 1016.8 hPa NNW 1.6 km/h 9.7 km/h 98 % 1.3 mm 51 W/m2
18:35 9.8 °C 9.5 °C 1018.2 hPa North 6.4 km/h 27.4 km/h 98 % 0.3 mm 9 W/m2
18:40 9.7 °C 9.4 °C 1018.2 hPa NNE 8.0 km/h 27.4 km/h 98 % 0.0 mm 7 W/m2
18:45 9.7 °C 9.4 °C 1018.2 hPa NW 9.7 km/h 20.9 km/h 98 % 0.0 mm 7 W/m2
18:50 9.6 °C 9.3 °C 1018.5 hPa North 16.1 km/h 17.7 km/h 98 % 0.0 mm 7 W/m2
18:55 9.5 °C 9.2 °C 1018.5 hPa NNE 11.3 km/h 20.9 km/h 98 % 0.0 mm 5 W/m2
19:00 9.4 °C 9.1 °C 1018.5 hPa North 12.9 km/h 22.5 km/h 98 % 0.0 mm 5 W/m2
19:05 9.3 °C 9.0 °C 1018.5 hPa NNW 11.3 km/h 22.5 km/h 98 % 0.0 mm 5 W/m2
19:10 9.3 °C 9.0 °C 1018.8 hPa NNW 12.9 km/h 20.9 km/h 98 % 0.0 mm 0 W/m2
19:15 9.3 °C 8.9 °C 1018.8 hPa NNW 9.7 km/h 19.3 km/h 97 % 0.0 mm 0 W/m2
19:20 9.3 °C 9.0 °C 1018.8 hPa North 6.4 km/h 19.3 km/h 98 % 0.0 mm 0 W/m2
19:25 9.3 °C 8.8 °C 1019.2 hPa NW 12.9 km/h 20.9 km/h 97 % 0.0 mm 0 W/m2
19:30 9.3 °C 8.8 °C 1019.2 hPa NW 1.6 km/h 22.5 km/h 97 % 0.0 mm 0 W/m2
19:35 9.2 °C 8.8 °C 1019.2 hPa North 8.0 km/h 22.5 km/h 97 % 0.0 mm 0 W/m2
19:40 9.2 °C 8.7 °C 1019.2 hPa North 12.9 km/h 22.5 km/h 97 % 0.0 mm 0 W/m2
19:45 9.1 °C 8.7 °C 1019.2 hPa NNW 9.7 km/h 20.9 km/h 97 % 0.0 mm 0 W/m2
19:50 9.1 °C 8.6 °C 1019.2 hPa NNW 4.8 km/h 19.3 km/h 97 % 0.0 mm 0 W/m2
19:55 9.1 °C 8.6 °C 1019.5 hPa NNW 3.2 km/h 17.7 km/h 97 % 0.0 mm 0 W/m2
20:00 9.0 °C 8.4 °C 1019.5 hPa North 9.7 km/h 19.3 km/h 96 % 0.0 mm 0 W/m2
20:05 8.9 °C 8.3 °C 1019.9 hPa NNW 12.9 km/h 19.3 km/h 96 % 0.0 mm 0 W/m2
20:10 8.9 °C 8.5 °C 1019.9 hPa North 12.9 km/h 17.7 km/h 97 % 0.0 mm 0 W/m2
20:15 8.9 °C 8.3 °C 1019.9 hPa North 11.3 km/h 22.5 km/h 96 % 0.0 mm 0 W/m2
20:20 8.9 °C 8.3 °C 1019.9 hPa NW 6.4 km/h 22.5 km/h 96 % 0.0 mm 0 W/m2
20:25 8.8 °C 8.2 °C 1019.9 hPa NNW 11.3 km/h 20.9 km/h 96 % 0.0 mm 0 W/m2
20:30 8.8 °C 8.2 °C 1019.9 hPa NNW 4.8 km/h 20.9 km/h 96 % 0.0 mm 0 W/m2
20:40 8.8 °C 8.2 °C 1020.2 hPa WNW 6.4 km/h 22.5 km/h 96 % 0.0 mm 0 W/m2
20:45 8.8 °C 8.2 °C 1020.2 hPa NW 14.5 km/h 19.3 km/h 96 % 0.0 mm 0 W/m2
20:50 8.7 °C 8.1 °C 1020.2 hPa North 4.8 km/h 19.3 km/h 96 % 0.0 mm 0 W/m2
20:55 8.7 °C 8.1 °C 1020.5 hPa North 9.7 km/h 19.3 km/h 96 % 0.0 mm 0 W/m2
21:00 8.7 °C 8.1 °C 1020.5 hPa NNW 8.0 km/h 19.3 km/h 96 % 0.0 mm 0 W/m2
21:05 8.7 °C 8.1 °C 1020.5 hPa NNW 6.4 km/h 22.5 km/h 96 % 0.0 mm 0 W/m2
21:15 8.8 °C 8.2 °C 1020.9 hPa NNW 8.0 km/h 16.1 km/h 96 % 0.0 mm 0 W/m2
21:20 8.8 °C 8.2 °C 1020.9 hPa North 9.7 km/h 16.1 km/h 96 % 0.0 mm 0 W/m2
21:25 8.9 °C 8.1 °C 1020.9 hPa North 9.7 km/h 19.3 km/h 95 % 0.0 mm 0 W/m2
21:30 8.9 °C 8.1 °C 1020.9 hPa NW 11.3 km/h 19.3 km/h 95 % 0.0 mm 0 W/m2
21:35 8.8 °C 7.9 °C 1021.2 hPa North 6.4 km/h 20.9 km/h 94 % 0.0 mm 0 W/m2
21:40 8.8 °C 7.9 °C 1021.2 hPa NNW 8.0 km/h 22.5 km/h 94 % 0.0 mm 0 W/m2
21:45 8.8 °C 7.8 °C 1021.2 hPa North 9.7 km/h 22.5 km/h 93 % 0.0 mm 0 W/m2
21:50 8.8 °C 7.7 °C 1021.2 hPa North 4.8 km/h 20.9 km/h 93 % 0.0 mm 0 W/m2
21:55 8.7 °C 7.7 °C 1021.2 hPa West 8.0 km/h 20.9 km/h 93 % 0.0 mm 0 W/m2
22:00 8.6 °C 7.5 °C 1021.2 hPa NNW 9.7 km/h 20.9 km/h 93 % 0.0 mm 0 W/m2
22:05 8.6 °C 7.6 °C 1021.2 hPa NNW 8.0 km/h 20.9 km/h 94 % 0.0 mm 0 W/m2
22:10 8.6 °C 7.6 °C 1021.6 hPa North 9.7 km/h 16.1 km/h 94 % 0.0 mm 0 W/m2
22:15 8.5 °C 7.6 °C 1021.6 hPa NNW 4.8 km/h 19.3 km/h 94 % 0.0 mm 0 W/m2
22:20 8.5 °C 7.6 °C 1021.6 hPa NNW 6.4 km/h 19.3 km/h 94 % 0.0 mm 0 W/m2
22:25 8.4 °C 7.5 °C 1021.6 hPa NNW 8.0 km/h 17.7 km/h 94 % 0.0 mm 0 W/m2
22:30 8.4 °C 7.5 °C 1021.6 hPa North 12.9 km/h 16.1 km/h 94 % 0.0 mm 0 W/m2
22:35 8.3 °C 7.4 °C 1021.6 hPa NNW 3.2 km/h 16.1 km/h 94 % 0.0 mm 0 W/m2
22:40 8.3 °C 7.4 °C 1021.6 hPa NW 4.8 km/h 19.3 km/h 94 % 0.0 mm 0 W/m2
22:45 8.3 °C 7.4 °C 1021.9 hPa North 12.9 km/h 19.3 km/h 94 % 0.0 mm 0 W/m2
22:50 8.3 °C 7.4 °C 1021.9 hPa NNW 16.1 km/h 16.1 km/h 94 % 0.0 mm 0 W/m2
22:55 8.3 °C 7.4 °C 1021.9 hPa NW 8.0 km/h 20.9 km/h 94 % 0.0 mm 0 W/m2
23:00 8.3 °C 7.4 °C 1021.9 hPa NNW 6.4 km/h 20.9 km/h 94 % 0.0 mm 0 W/m2
23:05 8.2 °C 7.3 °C 1021.9 hPa NNW 8.0 km/h 20.9 km/h 94 % 0.0 mm 0 W/m2
23:10 8.2 °C 7.3 °C 1021.9 hPa NNW 6.4 km/h 17.7 km/h 94 % 0.0 mm 0 W/m2
23:15 8.2 °C 7.3 °C 1022.2 hPa WNW 14.5 km/h 19.3 km/h 94 % 0.0 mm 0 W/m2
23:20 8.2 °C 7.3 °C 1022.2 hPa NW 8.0 km/h 19.3 km/h 94 % 0.0 mm 0 W/m2
23:25 8.2 °C 7.3 °C 1022.2 hPa NNW 9.7 km/h 16.1 km/h 94 % 0.0 mm 0 W/m2
23:30 8.1 °C 7.2 °C 1022.2 hPa NNW 9.7 km/h 16.1 km/h 94 % 0.0 mm 0 W/m2
23:35 8.1 °C 7.2 °C 1022.2 hPa NW 6.4 km/h 24.1 km/h 94 % 0.0 mm 0 W/m2
23:40 8.2 °C 7.3 °C 1022.2 hPa North 9.7 km/h 24.1 km/h 94 % 0.0 mm 0 W/m2
23:45 8.1 °C 7.2 °C 1022.2 hPa NNW 14.5 km/h 20.9 km/h 94 % 0.0 mm 0 W/m2
23:50 8.0 °C 7.1 °C 1022.2 hPa NNW 4.8 km/h 16.1 km/h 94 % 0.0 mm 0 W/m2
23:55 7.9 °C 7.0 °C 1022.2 hPa NW 4.8 km/h 16.1 km/h 94 % 0.0 mm 0 W/m2
Avec l'autorisation de Weather Underground - 1.5 mb